Time;durP1;ratioP1;P1;durP2;ratioP2;P2;SDS_P1;SDS_P2;PMS_P1;PMS_P2;Temp;Humidity;BMP_temperature;BMP_pressure;BME280_temperature;BME280_humidity;BME280_pressure;Samples;Min_cycle;Max_cycle;Signal;HPM_P1;HPM_P2
2021/12/17 00:00:17;;;;;;;15.30;7.90;;;;;;;3.81;84.55;100060.82;105247;1319;22646;-77
2021/12/17 00:05:18;;;;;;;30.40;13.00;;;;;;;3.79;84.40;100062.39;105238;1322;25976;-76
2021/12/17 00:07:46;;;;;;;22.30;10.00;;;;;;;3.76;84.37;100062.27;105240;1322;22671;-76
2021/12/17 00:10:17;;;;;;;27.90;11.00;;;;;;;3.74;84.33;100064.38;105230;1322;22607;-77
2021/12/17 00:12:46;;;;;;;25.40;11.60;;;;;;;3.77;84.34;100055.69;105220;1322;22701;-78
2021/12/17 00:15:13;;;;;;;36.00;14.40;;;;;;;3.77;84.36;100056.56;105315;1322;22639;-79
2021/12/17 00:17:50;;;;;;;23.80;10.60;;;;;;;3.76;84.62;100058.46;105391;1322;22656;-80
2021/12/17 00:48:36;;;;;;;14.80;6.60;;;;;;;3.55;83.34;100076.88;105176;1322;22620;-76
2021/12/17 00:53:53;;;;;;;16.60;5.80;;;;;;;3.59;83.80;100085.08;105481;1320;22581;-78
2021/12/17 00:56:20;;;;;;;12.60;5.50;;;;;;;3.60;83.73;100086.10;105441;1322;25442;-77
2021/12/17 00:58:47;;;;;;;13.80;5.90;;;;;;;3.56;83.61;100083.24;105502;1322;22677;-81
2021/12/17 01:01:15;;;;;;;16.70;6.80;;;;;;;3.54;83.39;100079.48;105529;1321;22646;-80
2021/12/17 01:03:45;;;;;;;15.90;6.60;;;;;;;3.53;83.35;100078.45;105522;1322;22559;-80
2021/12/17 01:06:12;;;;;;;20.20;6.40;;;;;;;3.51;83.19;100078.98;105531;1322;22667;-80
2021/12/17 01:08:40;;;;;;;16.80;5.70;;;;;;;3.52;83.09;100084.84;105527;1316;24436;-79
2021/12/17 01:11:07;;;;;;;15.60;5.60;;;;;;;3.55;83.59;100084.64;105548;1322;22676;-80
2021/12/17 01:13:36;;;;;;;11.20;4.60;;;;;;;3.57;83.72;100085.48;105525;1320;22675;-80
2021/12/17 01:16:04;;;;;;;13.30;4.60;;;;;;;3.55;83.79;100085.84;105523;1322;22584;-80
2021/12/17 01:18:46;;;;;;;12.10;4.40;;;;;;;3.54;83.61;100077.58;105530;1322;22673;-79
2021/12/17 01:43:14;;;;;;;19.90;5.30;;;;;;;3.32;83.02;100035.16;105540;1321;22579;-80
2021/12/17 01:45:42;;;;;;;19.50;4.30;;;;;;;3.31;83.28;100035.34;105534;1319;22598;-81
2021/12/17 01:48:16;;;;;;;12.10;4.60;;;;;;;3.30;83.42;100038.65;105536;1321;22555;-81
2021/12/17 02:01:34;;;;;;;13.20;4.10;;;;;;;3.09;83.46;100046.15;105545;1322;25343;-81
2021/12/17 02:04:04;;;;;;;16.20;4.70;;;;;;;3.11;83.64;100043.38;105536;1321;22677;-80
2021/12/17 02:06:35;;;;;;;13.50;4.40;;;;;;;3.13;83.80;100040.42;105549;1322;22644;-80
2021/12/17 02:09:16;;;;;;;9.00;3.60;;;;;;;3.14;84.02;100036.61;105558;1319;22606;-80
2021/12/17 02:19:48;;;;;;;17.40;4.90;;;;;;;2.91;83.59;100040.34;105293;1322;24433;-82
2021/12/17 02:33:10;;;;;;;9.10;3.20;;;;;;;2.81;84.19;100039.43;105241;1322;22670;-82
2021/12/17 02:35:42;;;;;;;12.10;3.90;;;;;;;2.77;84.10;100033.10;105270;1321;23364;-80
2021/12/17 02:38:12;;;;;;;11.00;4.30;;;;;;;2.73;83.74;100032.80;105515;1323;22728;-81
2021/12/17 02:46:11;;;;;;;13.80;4.50;;;;;;;2.73;84.45;100027.99;105344;1322;24349;-79
2021/12/17 02:48:41;;;;;;;14.50;3.80;;;;;;;2.68;84.26;100028.57;105292;1322;22668;-78
2021/12/17 02:51:09;;;;;;;12.20;4.00;;;;;;;2.66;84.04;100026.18;105322;1322;22534;-79
2021/12/17 02:53:37;;;;;;;15.00;4.90;;;;;;;2.61;83.82;100019.86;105282;1316;26145;-80
2021/12/17 02:56:08;;;;;;;8.50;3.80;;;;;;;2.63;84.00;100013.65;105242;1316;22822;-78
2021/12/17 02:58:37;;;;;;;12.20;4.20;;;;;;;2.66;83.95;100012.08;105268;1322;24071;-78
2021/12/17 03:01:07;;;;;;;12.60;4.80;;;;;;;2.67;84.50;100017.92;105319;1322;22659;-81
2021/12/17 03:03:39;;;;;;;23.90;7.30;;;;;;;2.67;84.30;100022.05;105298;1322;24263;-81
2021/12/17 03:06:07;;;;;;;23.40;8.50;;;;;;;2.67;84.25;100023.77;105293;1322;27652;-81
2021/12/17 03:08:34;;;;;;;30.30;9.60;;;;;;;2.67;84.00;100031.52;105316;1322;22683;-81
2021/12/17 03:11:02;;;;;;;28.80;11.60;;;;;;;2.68;83.81;100029.42;105331;1322;22660;-81
2021/12/17 03:13:32;;;;;;;32.00;13.30;;;;;;;2.73;84.10;100032.46;105305;1322;22708;-81
2021/12/17 03:16:08;;;;;;;23.60;8.70;;;;;;;2.79;84.32;100032.39;105263;1323;22650;-77
2021/12/17 03:24:05;;;;;;;11.50;3.80;;;;;;;2.83;84.13;100018.08;105310;1322;24464;-78
2021/12/17 03:26:33;;;;;;;16.30;4.50;;;;;;;2.84;83.87;100012.73;105287;1320;22561;-77
2021/12/17 03:29:07;;;;;;;15.40;4.40;;;;;;;2.85;83.65;100009.27;105254;1322;22604;-81
2021/12/17 03:31:35;;;;;;;15.80;4.90;;;;;;;2.91;83.62;100003.35;105264;1322;22705;-81
2021/12/17 03:34:27;;;;;;;19.60;7.10;;;;;;;2.93;83.90;100008.49;105268;1322;22688;-83
2021/12/17 03:36:56;;;;;;;14.40;6.30;;;;;;;2.96;84.26;100010.67;105272;1322;22650;-82
2021/12/17 03:39:26;;;;;;;13.90;5.10;;;;;;;2.96;84.08;100009.14;105294;1318;26161;-81
2021/12/17 03:41:55;;;;;;;19.40;6.20;;;;;;;2.98;83.69;100015.47;105238;1322;22641;-82
2021/12/17 03:44:23;;;;;;;18.40;5.30;;;;;;;2.96;83.49;100014.45;105404;1322;22814;-82
2021/12/17 03:46:51;;;;;;;27.60;6.60;;;;;;;3.01;83.57;100006.33;105387;1321;22596;-82
2021/12/17 03:49:22;;;;;;;19.20;6.00;;;;;;;3.05;83.73;100000.23;105379;1322;22725;-82
2021/12/17 03:52:04;;;;;;;21.50;6.50;;;;;;;3.04;83.95;99992.00;105403;1319;22719;-82
2021/12/17 03:54:33;;;;;;;13.10;4.60;;;;;;;3.01;83.51;99986.36;105373;1316;22645;-82
2021/12/17 03:57:01;;;;;;;13.40;4.90;;;;;;;2.98;83.41;99999.12;105395;1322;22729;-81
2021/12/17 03:59:28;;;;;;;14.10;5.20;;;;;;;2.97;83.45;100007.05;105336;1319;25099;-78
2021/12/17 04:01:55;;;;;;;16.60;5.10;;;;;;;2.97;83.31;100006.35;105396;1321;25547;-78
2021/12/17 04:04:22;;;;;;;18.80;6.20;;;;;;;3.03;83.04;100006.63;105380;1321;22574;-77
2021/12/17 04:06:49;;;;;;;19.10;5.70;;;;;;;3.04;83.38;99999.41;105402;1322;22680;-78
2021/12/17 04:09:20;;;;;;;19.00;6.00;;;;;;;3.08;83.34;99999.52;105402;1321;22717;-78
2021/12/17 04:11:47;;;;;;;16.10;4.80;;;;;;;3.05;83.53;100001.44;105372;1321;22652;-78
2021/12/17 04:14:14;;;;;;;14.60;4.50;;;;;;;3.05;83.36;99997.33;105422;1321;25213;-78
2021/12/17 04:16:41;;;;;;;17.40;7.50;;;;;;;3.04;83.15;99996.30;105415;1322;22575;-78
2021/12/17 04:19:08;;;;;;;23.30;7.40;;;;;;;3.03;82.81;100005.10;105418;1322;23894;-77
2021/12/17 04:21:35;;;;;;;25.10;7.80;;;;;;;3.01;82.56;100007.70;105408;1322;22715;-78
2021/12/17 04:24:02;;;;;;;15.00;6.20;;;;;;;3.07;82.73;100015.02;105425;1321;22657;-78
2021/12/17 04:26:29;;;;;;;12.20;5.40;;;;;;;3.11;82.42;100023.23;105440;1321;22646;-78
2021/12/17 04:28:56;;;;;;;17.20;4.80;;;;;;;3.08;82.24;100026.54;105463;1322;24535;-79
2021/12/17 04:31:27;;;;;;;17.20;5.10;;;;;;;3.06;82.32;100019.50;105438;1320;22645;-81
2021/12/17 04:33:54;;;;;;;11.00;4.30;;;;;;;3.01;82.02;100013.20;105379;1320;22633;-81
2021/12/17 04:36:27;;;;;;;12.70;4.20;;;;;;;2.97;82.10;100028.91;105275;1322;23879;-79
2021/12/17 04:38:55;;;;;;;13.00;4.60;;;;;;;2.97;81.92;100011.52;105378;1319;23409;-79
2021/12/17 04:57:27;;;;;;;15.90;4.40;;;;;;;2.93;81.26;100014.17;105366;1321;22696;-81
2021/12/17 04:59:57;;;;;;;14.70;4.80;;;;;;;2.96;81.00;100003.09;105407;1321;22584;-81
2021/12/17 05:02:25;;;;;;;16.10;5.30;;;;;;;2.95;81.32;100000.55;105374;1321;22730;-83
2021/12/17 05:04:53;;;;;;;13.70;4.90;;;;;;;2.96;81.64;100004.13;105371;1314;22649;-82
2021/12/17 05:07:23;;;;;;;15.70;4.60;;;;;;;2.95;81.69;100000.36;105242;1319;26309;-82
2021/12/17 05:18:26;;;;;;;14.00;4.80;;;;;;;2.89;81.38;99988.91;105359;1321;22753;-81
2021/12/17 05:20:58;;;;;;;8.50;3.70;;;;;;;2.92;81.73;99987.67;105377;1321;25382;-82
2021/12/17 05:23:32;;;;;;;11.20;4.30;;;;;;;2.93;81.79;99990.25;105450;1316;23816;-81
2021/12/17 05:26:04;;;;;;;16.60;5.00;;;;;;;2.89;81.62;99990.63;105399;1321;22584;-81
2021/12/17 05:28:31;;;;;;;19.00;5.40;;;;;;;2.85;81.39;99993.97;105368;1321;25378;-81
2021/12/17 05:30:59;;;;;;;15.40;4.30;;;;;;;2.83;81.33;99991.58;105402;1322;24196;-81
2021/12/17 05:33:26;;;;;;;18.30;4.90;;;;;;;2.81;81.32;99992.29;105410;1322;22600;-82
2021/12/17 05:35:54;;;;;;;13.40;4.80;;;;;;;2.86;81.57;99996.01;105369;1322;22581;-82
2021/12/17 05:38:23;;;;;;;17.50;5.30;;;;;;;2.90;81.54;100010.42;105568;1320;22692;-81
2021/12/17 05:40:51;;;;;;;9.50;4.50;;;;;;;2.91;82.03;100007.82;105393;1319;22672;-82
2021/12/17 05:43:18;;;;;;;16.30;5.30;;;;;;;2.89;81.83;100012.48;105817;1322;22635;-80
2021/12/17 05:46:03;;;;;;;12.20;4.20;;;;;;;2.87;81.46;100009.92;105333;1321;22683;-80
2021/12/17 05:48:31;;;;;;;16.20;5.90;;;;;;;2.82;81.06;100005.36;105363;1321;25425;-81
2021/12/17 05:51:01;;;;;;;12.20;4.30;;;;;;;2.79;81.20;100012.77;105359;1321;22580;-81
2021/12/17 05:53:34;;;;;;;16.00;4.90;;;;;;;2.83;81.34;100017.90;105312;1321;22589;-81
2021/12/17 05:56:01;;;;;;;17.80;4.70;;;;;;;2.83;81.59;100018.07;105353;1322;22608;-81
2021/12/17 05:58:29;;;;;;;9.60;4.20;;;;;;;2.86;81.90;100015.11;105338;1322;22652;-80
2021/12/17 06:00:56;;;;;;;13.60;4.50;;;;;;;2.86;81.73;100008.75;105323;1322;22594;-80
2021/12/17 06:03:24;;;;;;;14.80;4.30;;;;;;;2.81;81.11;100013.45;105367;1320;22593;-81
2021/12/17 06:05:51;;;;;;;12.90;4.10;;;;;;;2.77;81.08;100023.32;105349;1320;22589;-81
2021/12/17 06:08:18;;;;;;;12.90;5.00;;;;;;;2.77;81.06;100029.33;105382;1319;24508;-80
2021/12/17 06:10:46;;;;;;;13.60;5.30;;;;;;;2.80;81.13;100037.20;105310;1321;22588;-80
2021/12/17 06:13:13;;;;;;;14.60;4.60;;;;;;;2.83;81.43;100042.51;105532;1322;22686;-81
2021/12/17 06:15:40;;;;;;;11.70;4.30;;;;;;;2.84;81.61;100048.35;105643;1322;22831;-78
2021/12/17 06:18:07;;;;;;;11.90;3.90;;;;;;;2.82;81.34;100052.66;105651;1322;22578;-78
2021/12/17 06:20:34;;;;;;;13.20;4.20;;;;;;;2.80;80.80;100052.00;105599;1321;22648;-78
2021/12/17 06:23:01;;;;;;;10.90;4.00;;;;;;;2.73;80.93;100049.33;105619;1321;22907;-78
2021/12/17 06:25:28;;;;;;;11.60;4.30;;;;;;;2.72;80.94;100060.69;105631;1322;22580;-78
2021/12/17 06:27:55;;;;;;;14.50;4.50;;;;;;;2.72;80.64;100068.26;105634;1319;22651;-77
2021/12/17 06:30:23;;;;;;;17.60;5.00;;;;;;;2.73;80.76;100071.69;105654;1321;22777;-81
2021/12/17 06:32:50;;;;;;;12.00;4.50;;;;;;;2.76;81.07;100074.07;105625;1322;22572;-80
2021/12/17 06:35:17;;;;;;;13.60;4.40;;;;;;;2.76;81.44;100067.02;105625;1321;22631;-80
2021/12/17 06:37:45;;;;;;;11.40;4.20;;;;;;;2.76;80.97;100051.02;105627;1321;24112;-80
2021/12/17 06:40:13;;;;;;;15.90;4.60;;;;;;;2.73;80.77;100050.70;105602;1321;22597;-80
2021/12/17 06:42:40;;;;;;;13.50;4.20;;;;;;;2.69;80.63;100057.61;105581;1321;22585;-80
2021/12/17 06:45:13;;;;;;;13.40;4.80;;;;;;;2.68;80.45;100057.28;105546;1323;22659;-80
2021/12/17 06:47:40;;;;;;;15.60;5.20;;;;;;;2.66;80.23;100066.09;105582;1322;25860;-80
2021/12/17 07:11:18;;;;;;;26.10;8.10;;;;;;;2.72;80.51;100036.95;105309;1319;23618;-81
2021/12/17 07:35:44;;;;;;;14.30;4.50;;;;;;;2.79;80.62;100050.27;105250;1316;22823;-77
2021/12/17 07:41:00;;;;;;;14.90;5.20;;;;;;;2.81;80.10;100052.84;105286;1323;23264;-80
2021/12/17 07:43:36;;;;;;;14.50;5.10;;;;;;;2.78;80.01;100054.10;105277;1322;22600;-77
2021/12/17 07:46:09;;;;;;;16.70;4.70;;;;;;;2.77;79.67;100051.86;105259;1322;22717;-81
2021/12/17 07:48:37;;;;;;;17.70;5.60;;;;;;;2.78;79.63;100053.40;105183;1323;25269;-82
2021/12/17 07:51:08;;;;;;;22.10;8.40;;;;;;;2.82;79.93;100053.36;105436;1323;23476;-83
2021/12/17 07:53:36;;;;;;;14.20;5.20;;;;;;;2.87;80.17;100055.18;105252;1322;22647;-84
2021/12/17 07:56:05;;;;;;;20.00;6.30;;;;;;;2.87;80.34;100061.02;105257;1322;22649;-83
2021/12/17 07:58:32;;;;;;;17.00;5.70;;;;;;;2.86;80.64;100055.38;105230;1323;24436;-84
2021/12/17 08:01:00;;;;;;;20.00;6.50;;;;;;;2.87;80.29;100047.80;105281;1322;22665;-84
2021/12/17 08:03:27;;;;;;;15.70;6.00;;;;;;;2.88;80.03;100047.94;105432;1323;24386;-81
2021/12/17 08:05:55;;;;;;;15.70;5.30;;;;;;;2.89;80.09;100045.35;105239;1323;22677;-84
2021/12/17 08:08:22;;;;;;;15.00;5.60;;;;;;;2.90;79.73;100046.89;105232;1322;22667;-82
2021/12/17 08:10:50;;;;;;;13.70;6.00;;;;;;;2.94;79.86;100047.72;105244;1319;25362;-82
2021/12/17 08:13:22;;;;;;;16.20;6.10;;;;;;;2.97;80.23;100050.41;105179;1322;22580;-80
2021/12/17 08:16:20;;;;;;;16.50;5.60;;;;;;;3.05;80.56;100054.63;105116;1319;22790;-81
2021/12/17 08:23:08;;;;;;;19.30;6.80;;;;;;;3.07;79.97;100055.45;105105;1319;22730;-80
2021/12/17 08:24:56;;;;;;;18.20;5.60;;;;;;;3.03;79.13;100052.59;105182;1320;22590;-80
2021/12/17 08:32:02;;;;;;;26.50;9.00;;;;;;;3.11;79.26;100064.54;105166;1323;22613;-81
2021/12/17 08:34:29;;;;;;;23.90;8.50;;;;;;;3.15;79.19;100066.55;105204;1323;25533;-80
2021/12/17 08:36:56;;;;;;;19.90;7.00;;;;;;;3.13;78.97;100062.09;105219;1319;25513;-81
2021/12/17 08:39:24;;;;;;;14.90;6.10;;;;;;;3.14;79.20;100066.05;105228;1322;25397;-81
2021/12/17 08:41:54;;;;;;;17.70;6.70;;;;;;;3.14;79.11;100065.52;105225;1318;25332;-81
2021/12/17 08:44:23;;;;;;;27.10;9.60;;;;;;;3.14;78.78;100059.52;105244;1320;25108;-81
2021/12/17 08:46:50;;;;;;;33.20;10.10;;;;;;;3.14;78.71;100064.84;105200;1323;22647;-85
2021/12/17 08:49:17;;;;;;;19.30;7.00;;;;;;;3.16;78.49;100064.98;105220;1322;22756;-82
2021/12/17 08:51:45;;;;;;;21.30;8.00;;;;;;;3.20;78.63;100065.98;105178;1322;22834;-81
2021/12/17 08:54:12;;;;;;;18.50;6.40;;;;;;;3.24;79.06;100065.92;105237;1322;22626;-80
2021/12/17 08:56:49;;;;;;;14.40;4.00;;;;;;;3.30;79.33;100067.92;105193;1322;22591;-82
2021/12/17 08:59:17;;;;;;;17.60;5.20;;;;;;;3.31;79.30;100078.39;105260;1323;22623;-83
2021/12/17 09:01:45;;;;;;;17.30;5.20;;;;;;;3.34;78.90;100076.29;105333;1322;23417;-84
2021/12/17 09:04:13;;;;;;;9.70;4.90;;;;;;;3.34;78.53;100071.82;105271;1322;24114;-83
2021/12/17 09:06:41;;;;;;;14.60;5.40;;;;;;;3.32;78.21;100077.52;105577;1322;22653;-82
2021/12/17 09:09:08;;;;;;;18.20;6.80;;;;;;;3.34;78.15;100083.52;105273;1322;25944;-82
2021/12/17 09:11:35;;;;;;;34.30;10.10;;;;;;;3.38;78.15;100080.21;105299;1322;22800;-81
2021/12/17 09:14:05;;;;;;;29.10;8.20;;;;;;;3.40;78.81;100075.36;105295;1322;23019;-81
2021/12/17 09:16:33;;;;;;;13.00;5.70;;;;;;;3.50;78.81;100072.29;105370;1320;22906;-84
2021/12/17 09:19:00;;;;;;;13.90;5.30;;;;;;;3.52;78.06;100065.89;105280;1322;22623;-83
2021/12/17 09:21:26;;;;;;;17.90;5.70;;;;;;;3.50;77.76;100064.02;105295;1321;22779;-83
2021/12/17 09:23:54;;;;;;;17.50;5.90;;;;;;;3.54;77.95;100060.70;105204;1322;22715;-81
2021/12/17 09:26:22;;;;;;;26.30;11.00;;;;;;;3.57;77.67;100061.00;105238;1322;22606;-81
2021/12/17 09:28:50;;;;;;;32.80;14.00;;;;;;;3.59;77.70;100064.60;105368;1319;22572;-79
2021/12/17 09:31:18;;;;;;;17.40;6.50;;;;;;;3.66;77.43;100059.33;105325;1322;22818;-79
2021/12/17 09:33:49;;;;;;;18.80;6.70;;;;;;;3.75;77.62;100054.02;105279;1322;23439;-79
2021/12/17 09:36:18;;;;;;;31.90;9.40;;;;;;;3.77;78.01;100050.19;105273;1322;22573;-79
2021/12/17 09:38:49;;;;;;;26.00;8.90;;;;;;;3.86;78.20;100052.30;105298;1322;22725;-78
2021/12/17 09:41:17;;;;;;;17.80;7.00;;;;;;;3.87;77.89;100051.41;105257;1322;22585;-77
2021/12/17 09:43:44;;;;;;;15.50;5.50;;;;;;;3.92;77.33;100047.03;105356;1321;23153;-80
2021/12/17 09:46:12;;;;;;;21.20;8.80;;;;;;;3.91;76.83;100041.70;105418;1322;22592;-83
2021/12/17 09:48:39;;;;;;;15.60;6.30;;;;;;;3.88;76.71;100039.17;105328;1321;22577;-79
2021/12/17 09:51:08;;;;;;;15.90;6.10;;;;;;;3.92;76.15;100037.73;105332;1322;22601;-83
2021/12/17 09:53:37;;;;;;;17.40;6.00;;;;;;;3.91;76.44;100038.95;105389;1321;22632;-84
2021/12/17 09:56:05;;;;;;;28.20;9.30;;;;;;;3.94;76.95;100032.70;105339;1321;22633;-85
2021/12/17 09:58:33;;;;;;;16.80;6.70;;;;;;;3.95;76.96;100033.88;105338;1322;22591;-79
2021/12/17 10:01:01;;;;;;;16.20;5.30;;;;;;;3.98;76.34;100028.50;105307;1322;22666;-78
2021/12/17 10:03:28;;;;;;;15.60;5.20;;;;;;;3.95;75.89;100031.30;105325;1322;22622;-78
2021/12/17 10:05:56;;;;;;;15.50;5.00;;;;;;;3.92;76.13;100024.45;105336;1322;22813;-79
2021/12/17 10:08:25;;;;;;;17.90;5.00;;;;;;;3.94;75.72;100018.73;105340;1322;22638;-78
2021/12/17 10:11:00;;;;;;;10.90;5.40;;;;;;;3.95;75.96;100019.39;105274;1322;22647;-78
2021/12/17 10:13:32;;;;;;;13.40;4.90;;;;;;;3.98;76.00;100018.83;105301;1322;22682;-78
2021/12/17 10:16:06;;;;;;;20.00;6.10;;;;;;;3.96;76.30;100022.14;105259;1316;24268;-78
2021/12/17 10:18:35;;;;;;;17.90;6.80;;;;;;;3.95;76.27;100019.91;105357;1322;22585;-78
2021/12/17 10:21:06;;;;;;;16.50;5.90;;;;;;;3.95;76.10;100015.61;105373;1319;24045;-79
2021/12/17 10:23:34;;;;;;;11.10;4.50;;;;;;;3.98;75.62;100021.25;105572;1322;22575;-76
2021/12/17 10:26:03;;;;;;;16.00;5.40;;;;;;;4.02;75.11;100027.05;105522;1322;25287;-82
2021/12/17 10:28:31;;;;;;;12.20;5.70;;;;;;;4.01;75.86;100026.20;105459;1321;25398;-77
2021/12/17 10:30:59;;;;;;;12.00;4.70;;;;;;;4.10;75.58;100028.11;105477;1321;22745;-77
2021/12/17 10:33:28;;;;;;;16.50;5.40;;;;;;;4.08;75.51;100025.05;105519;1319;22675;-78
2021/12/17 10:36:03;;;;;;;14.50;5.50;;;;;;;4.09;75.08;100023.84;105533;1321;25403;-78
2021/12/17 10:38:30;;;;;;;11.10;5.10;;;;;;;4.07;74.50;100029.38;105495;1321;22608;-77
2021/12/17 10:43:35;;;;;;;12.20;4.90;;;;;;;3.99;74.67;100020.55;105584;1322;22644;-80
2021/12/17 10:46:25;;;;;;;12.30;4.80;;;;;;;3.99;74.87;100011.41;105572;1322;25932;-78
2021/12/17 10:49:00;;;;;;;14.00;5.10;;;;;;;3.96;74.68;100003.70;105511;1323;22655;-78
2021/12/17 10:54:12;;;;;;;15.90;6.30;;;;;;;3.89;74.25;100008.66;105543;1321;22932;-78
2021/12/17 10:56:42;;;;;;;14.30;6.40;;;;;;;3.88;74.29;100017.63;105578;1321;25300;-81
2021/12/17 10:59:15;;;;;;;19.60;7.30;;;;;;;3.86;74.46;100023.50;105554;1322;22598;-80
2021/12/17 11:01:55;;;;;;;22.60;8.10;;;;;;;3.87;74.47;100021.94;105532;1321;22593;-78
2021/12/17 11:04:28;;;;;;;14.60;5.50;;;;;;;3.85;74.28;100024.05;105522;1321;22722;-79
2021/12/17 11:06:57;;;;;;;15.90;7.50;;;;;;;3.85;74.71;100019.92;105444;1322;22649;-79
2021/12/17 11:09:42;;;;;;;18.60;6.60;;;;;;;3.89;75.17;100019.50;105557;1322;22579;-79
2021/12/17 11:12:26;;;;;;;14.30;6.40;;;;;;;3.92;75.43;100011.19;105575;1322;25936;-78
2021/12/17 11:15:07;;;;;;;18.00;7.90;;;;;;;3.94;74.73;100010.11;105548;1320;23877;-78
2021/12/17 11:17:35;;;;;;;21.00;9.70;;;;;;;3.89;74.61;100012.77;105563;1322;22591;-79
2021/12/17 11:20:25;;;;;;;17.10;8.60;;;;;;;3.89;74.25;100015.89;105551;1322;24155;-78
2021/12/17 11:22:54;;;;;;;14.70;7.10;;;;;;;3.89;73.75;100014.52;105549;1322;22627;-77
2021/12/17 11:25:24;;;;;;;19.00;7.90;;;;;;;3.88;73.57;100011.95;105529;1322;24212;-76
2021/12/17 11:27:52;;;;;;;15.70;6.80;;;;;;;3.93;73.80;100012.20;105564;1322;22641;-77
2021/12/17 11:30:23;;;;;;;14.30;6.20;;;;;;;3.99;73.86;100014.67;105551;1322;22661;-78
2021/12/17 11:32:52;;;;;;;16.60;7.10;;;;;;;4.00;73.49;100011.21;105546;1316;25287;-80
2021/12/17 11:35:22;;;;;;;18.30;9.30;;;;;;;3.98;72.35;100008.84;105506;1322;22938;-79
2021/12/17 11:37:53;;;;;;;16.00;8.10;;;;;;;3.89;72.79;100003.48;105502;1322;22583;-79
2021/12/17 11:40:28;;;;;;;20.20;8.70;;;;;;;3.88;72.76;99997.63;105593;1317;22736;-78
2021/12/17 11:43:23;;;;;;;19.50;8.90;;;;;;;3.84;73.05;99999.60;105646;1322;25944;-78
2021/12/17 11:46:00;;;;;;;17.80;8.80;;;;;;;3.85;73.35;100003.73;105055;1328;22947;-77
2021/12/17 11:48:30;;;;;;;16.60;7.90;;;;;;;3.89;72.78;100003.81;105080;1329;22843;-78
2021/12/17 11:51:17;;;;;;;14.90;7.40;;;;;;;3.95;72.48;100008.71;105034;1328;22594;-77
2021/12/17 11:54:08;;;;;;;16.10;6.80;;;;;;;3.96;72.88;100012.66;105037;1329;22676;-77
2021/12/17 11:56:52;;;;;;;15.70;7.60;;;;;;;3.94;72.60;100008.23;104796;1329;22672;-77
2021/12/17 11:59:25;;;;;;;21.70;10.30;;;;;;;3.89;72.30;99998.83;104720;1329;22599;-79
2021/12/17 12:02:05;;;;;;;;;;;;;;;3.84;72.58;99997.70;104751;1329;22617;-76
2021/12/17 12:04:32;;;;;;;19.30;9.20;;;;;;;3.81;72.67;99993.10;104754;1329;24122;-78
2021/12/17 12:07:06;;;;;;;22.00;10.30;;;;;;;3.74;72.91;99995.45;104747;1329;22684;-77
2021/12/17 12:10:00;;;;;;;19.30;8.50;;;;;;;3.73;72.99;99997.52;104821;1329;22687;-78
2021/12/17 12:12:45;;;;;;;20.50;8.80;;;;;;;3.81;73.56;100001.55;104738;1329;22655;-77
2021/12/17 12:15:22;;;;;;;18.60;9.20;;;;;;;3.83;73.93;100003.23;104757;1329;22654;-78
2021/12/17 12:18:01;;;;;;;28.80;10.30;;;;;;;3.82;74.15;100005.14;104748;1329;22734;-84
2021/12/17 12:20:50;;;;;;;23.10;11.40;;;;;;;3.84;74.27;100007.36;104724;1329;25475;-81
2021/12/17 12:23:29;;;;;;;27.50;12.40;;;;;;;3.82;73.97;100008.08;104983;1322;23933;-83
2021/12/17 12:26:07;;;;;;;25.90;11.30;;;;;;;3.83;74.03;100007.55;105398;1320;22756;-77
2021/12/17 12:28:50;;;;;;;16.60;8.80;;;;;;;3.78;73.75;100002.79;105431;1320;26731;-83
2021/12/17 12:31:17;;;;;;;23.50;9.80;;;;;;;3.73;73.68;100005.64;105392;1321;25553;-83
2021/12/17 12:36:48;;;;;;;19.00;7.90;;;;;;;3.66;73.60;100010.56;105352;1320;23362;-79
2021/12/17 12:39:38;;;;;;;21.20;9.60;;;;;;;3.66;73.50;100013.65;105315;1322;22770;-81
2021/12/17 12:42:20;;;;;;;19.60;9.20;;;;;;;3.60;74.04;100014.26;105343;1322;25433;-80
2021/12/17 12:44:47;;;;;;;19.20;9.40;;;;;;;3.58;74.38;100005.17;105352;1321;22685;-81
2021/12/17 12:47:20;;;;;;;19.20;9.10;;;;;;;3.55;74.17;100001.77;105370;1321;22652;-80
2021/12/17 12:50:02;;;;;;;21.90;10.10;;;;;;;3.53;73.87;100008.17;105358;1322;22627;-83
2021/12/17 12:52:29;;;;;;;22.10;9.50;;;;;;;3.45;73.83;100004.34;105386;1322;27881;-81
2021/12/17 12:54:59;;;;;;;22.60;9.40;;;;;;;3.44;73.74;100002.80;105416;1321;22717;-80
2021/12/17 12:57:30;;;;;;;21.10;9.30;;;;;;;3.44;74.38;100008.31;105360;1322;25406;-82
2021/12/17 13:00:07;;;;;;;22.20;8.80;;;;;;;3.48;74.64;100012.73;105378;1322;22653;-81
2021/12/17 13:02:34;;;;;;;20.00;8.90;;;;;;;3.45;74.44;100000.20;105325;1321;22505;-83
2021/12/17 13:05:06;;;;;;;20.10;10.10;;;;;;;3.43;74.17;99995.41;105362;1322;25360;-81
2021/12/17 13:07:47;;;;;;;16.50;8.60;;;;;;;3.36;74.21;100002.40;105408;1322;22698;-80
2021/12/17 13:10:20;;;;;;;21.20;8.20;;;;;;;3.30;73.86;99996.80;105384;1322;22656;-84
2021/12/17 13:13:07;;;;;;;18.50;9.00;;;;;;;3.22;74.10;99996.91;105402;1321;22681;-84
2021/12/17 13:15:45;;;;;;;19.00;8.50;;;;;;;3.21;74.01;100001.25;105354;1322;22643;-84
2021/12/17 13:24:13;;;;;;;21.50;9.60;;;;;;;3.18;75.13;99996.27;105624;1321;22616;-82
2021/12/17 13:26:42;;;;;;;26.80;10.70;;;;;;;3.18;75.07;99999.90;105588;1322;22597;-83
2021/12/17 13:29:18;;;;;;;26.50;9.60;;;;;;;3.17;74.65;99992.34;105576;1322;26636;-81
2021/12/17 13:32:05;;;;;;;21.90;9.10;;;;;;;3.18;74.36;99990.77;105601;1322;22614;-78
2021/12/17 13:34:40;;;;;;;24.70;10.00;;;;;;;3.12;74.38;99995.34;105584;1321;22601;-80
2021/12/17 13:37:20;;;;;;;25.30;9.60;;;;;;;3.11;74.40;99990.70;105601;1321;25419;-77
2021/12/17 13:39:49;;;;;;;20.20;8.40;;;;;;;3.14;74.48;99986.52;105595;1322;26686;-76
2021/12/17 13:42:24;;;;;;;21.30;10.10;;;;;;;3.14;74.63;99984.95;105566;1322;22584;-77
2021/12/17 13:44:53;;;;;;;20.80;8.40;;;;;;;3.14;74.84;99986.52;105553;1322;22617;-76
2021/12/17 13:47:35;;;;;;;21.00;8.10;;;;;;;3.08;75.26;99996.41;105535;1322;24250;-76
2021/12/17 13:50:17;;;;;;;14.60;7.00;;;;;;;3.06;75.14;99999.18;105517;1322;22678;-77
2021/12/17 13:52:49;;;;;;;23.80;9.10;;;;;;;3.05;74.73;100005.23;105558;1322;22826;-80
2021/12/17 13:55:20;;;;;;;23.20;9.10;;;;;;;2.98;74.95;100002.39;105560;1322;22598;-78
2021/12/17 13:57:48;;;;;;;17.80;6.80;;;;;;;2.96;74.84;99998.80;105527;1322;22652;-79
2021/12/17 14:00:20;;;;;;;19.70;8.30;;;;;;;2.92;74.80;100010.39;105552;1321;24219;-80
2021/12/17 14:02:49;;;;;;;16.40;7.00;;;;;;;2.91;74.69;100007.65;105540;1322;22552;-80
2021/12/17 14:05:28;;;;;;;16.80;7.50;;;;;;;2.92;75.06;100000.23;105554;1322;22620;-82
2021/12/17 14:07:59;;;;;;;17.70;7.20;;;;;;;2.93;75.29;99992.32;105570;1322;22981;-81
2021/12/17 14:10:29;;;;;;;19.80;7.30;;;;;;;2.93;75.13;99994.53;105525;1322;24222;-80
2021/12/17 14:12:56;;;;;;;20.20;6.90;;;;;;;2.84;75.33;99998.09;105561;1322;22584;-80
2021/12/17 14:15:27;;;;;;;16.00;7.20;;;;;;;2.80;75.29;100002.27;105528;1322;22583;-80
2021/12/17 14:17:57;;;;;;;17.60;7.60;;;;;;;2.81;75.08;100007.25;105521;1323;23049;-80
2021/12/17 14:20:29;;;;;;;15.70;7.40;;;;;;;2.76;75.27;100014.38;105534;1320;22588;-79
2021/12/17 14:23:04;;;;;;;14.50;5.30;;;;;;;2.73;75.27;100010.79;105549;1320;22620;-81
2021/12/17 14:25:39;;;;;;;19.10;7.10;;;;;;;2.75;75.45;100010.77;105560;1322;26518;-78
2021/12/17 14:28:14;;;;;;;16.10;6.70;;;;;;;2.74;75.76;100012.16;105529;1320;24123;-79
2021/12/17 14:31:01;;;;;;;14.70;6.10;;;;;;;2.74;76.36;100013.36;105490;1322;22683;-76
2021/12/17 14:33:41;;;;;;;13.30;5.70;;;;;;;2.78;76.56;100014.69;105400;1322;22574;-76
2021/12/17 14:36:10;;;;;;;17.40;6.20;;;;;;;2.73;76.17;100011.83;105538;1322;22591;-76
2021/12/17 14:38:41;;;;;;;14.20;6.00;;;;;;;2.70;76.28;100013.58;105525;1322;22728;-79
2021/12/17 14:41:13;;;;;;;13.90;5.50;;;;;;;2.68;76.16;100016.88;105392;1322;22623;-76
2021/12/17 14:43:49;;;;;;;15.20;5.60;;;;;;;2.64;75.85;100018.11;105442;1322;22658;-79
2021/12/17 14:46:26;;;;;;;18.40;7.30;;;;;;;2.63;76.05;100025.70;105521;1322;22652;-79